sensor_id;sensor_type;location;lat;lon;timestamp;P1;durP1;ratioP1;P2;durP2;ratioP2
26696;SDS011;14312;52.614;13.496;2023-12-28T11:54:33;2.10;;;1.80;;
26696;SDS011;14312;52.614;13.496;2023-12-28T11:57:37;3.08;;;2.00;;
26696;SDS011;14312;52.614;13.496;2023-12-28T12:00:32;2.78;;;1.98;;
26696;SDS011;14312;52.614;13.496;2023-12-28T12:07:04;2.83;;;1.90;;
26696;SDS011;14312;52.614;13.496;2023-12-28T12:09:59;2.72;;;1.85;;
26696;SDS011;14312;52.614;13.496;2023-12-28T12:12:45;2.05;;;1.85;;
26696;SDS011;14312;52.614;13.496;2023-12-28T12:19:55;3.35;;;2.13;;
26696;SDS011;14312;52.614;13.496;2023-12-28T12:55:57;3.28;;;2.03;;
26696;SDS011;14312;52.614;13.496;2023-12-28T13:02:07;2.58;;;1.88;;
26696;SDS011;14312;52.614;13.496;2023-12-28T13:05:50;4.80;;;1.80;;
26696;SDS011;14312;52.614;13.496;2023-12-28T13:08:53;2.17;;;1.55;;
26696;SDS011;14312;52.614;13.496;2023-12-28T13:11:43;2.22;;;1.92;;
26696;SDS011;14312;52.614;13.496;2023-12-28T13:14:30;3.33;;;2.00;;
26696;SDS011;14312;52.614;13.496;2023-12-28T13:17:17;2.67;;;1.70;;
26696;SDS011;14312;52.614;13.496;2023-12-28T13:20:06;3.38;;;2.05;;
26696;SDS011;14312;52.614;13.496;2023-12-28T13:23:01;1.85;;;1.60;;
26696;SDS011;14312;52.614;13.496;2023-12-28T13:25:47;4.03;;;2.17;;
26696;SDS011;14312;52.614;13.496;2023-12-28T13:28:34;2.80;;;1.80;;
26696;SDS011;14312;52.614;13.496;2023-12-28T13:31:20;3.45;;;1.88;;
26696;SDS011;14312;52.614;13.496;2023-12-28T13:34:10;2.78;;;1.95;;
26696;SDS011;14312;52.614;13.496;2023-12-28T13:36:56;2.35;;;1.60;;
26696;SDS011;14312;52.614;13.496;2023-12-28T13:40:02;2.00;;;1.80;;
26696;SDS011;14312;52.614;13.496;2023-12-28T13:46:39;2.55;;;1.85;;
26696;SDS011;14312;52.614;13.496;2023-12-28T13:58:23;2.53;;;2.10;;
26696;SDS011;14312;52.614;13.496;2023-12-28T14:09:03;2.13;;;1.80;;
26696;SDS011;14312;52.614;13.496;2023-12-28T14:11:49;2.33;;;1.70;;
26696;SDS011;14312;52.614;13.496;2023-12-28T14:14:38;2.30;;;1.85;;
26696;SDS011;14312;52.614;13.496;2023-12-28T14:17:33;5.90;;;2.50;;
26696;SDS011;14312;52.614;13.496;2023-12-28T14:20:19;2.75;;;1.90;;
26696;SDS011;14312;52.614;13.496;2023-12-28T14:23:06;2.72;;;2.03;;
26696;SDS011;14312;52.614;13.496;2023-12-28T14:25:52;3.78;;;2.05;;
26696;SDS011;14312;52.614;13.496;2023-12-28T14:28:39;2.28;;;1.80;;
26696;SDS011;14312;52.614;13.496;2023-12-28T14:31:47;3.38;;;1.92;;
26696;SDS011;14312;52.614;13.496;2023-12-28T14:34:32;3.75;;;2.15;;
26696;SDS011;14312;52.614;13.496;2023-12-28T14:37:18;2.95;;;1.92;;
26696;SDS011;14312;52.614;13.496;2023-12-28T14:40:05;3.40;;;2.08;;
26696;SDS011;14312;52.614;13.496;2023-12-28T14:42:57;3.00;;;2.35;;
26696;SDS011;14312;52.614;13.496;2023-12-28T14:45:44;2.13;;;1.70;;
26696;SDS011;14312;52.614;13.496;2023-12-28T14:48:32;2.72;;;1.85;;
26696;SDS011;14312;52.614;13.496;2023-12-28T14:51:19;3.35;;;1.80;;
26696;SDS011;14312;52.614;13.496;2023-12-28T14:54:05;2.63;;;1.60;;
26696;SDS011;14312;52.614;13.496;2023-12-28T14:57:07;2.78;;;2.03;;
26696;SDS011;14312;52.614;13.496;2023-12-28T14:59:58;2.45;;;2.00;;
26696;SDS011;14312;52.614;13.496;2023-12-28T15:02:44;4.85;;;2.00;;
26696;SDS011;14312;52.614;13.496;2023-12-28T15:05:30;2.55;;;1.98;;
26696;SDS011;14312;52.614;13.496;2023-12-28T15:08:17;2.50;;;1.95;;
26696;SDS011;14312;52.614;13.496;2023-12-28T15:11:03;2.85;;;1.70;;
26696;SDS011;14312;52.614;13.496;2023-12-28T15:13:52;3.17;;;1.83;;
26696;SDS011;14312;52.614;13.496;2023-12-28T15:16:40;4.13;;;2.20;;
26696;SDS011;14312;52.614;13.496;2023-12-28T15:19:26;2.60;;;2.00;;
26696;SDS011;14312;52.614;13.496;2023-12-28T15:22:13;4.32;;;2.00;;
26696;SDS011;14312;52.614;13.496;2023-12-28T15:24:59;2.88;;;2.13;;
26696;SDS011;14312;52.614;13.496;2023-12-28T15:27:46;5.57;;;2.20;;
26696;SDS011;14312;52.614;13.496;2023-12-28T15:30:34;3.10;;;2.30;;
26696;SDS011;14312;52.614;13.496;2023-12-28T15:33:28;2.97;;;2.15;;
26696;SDS011;14312;52.614;13.496;2023-12-28T15:36:20;3.50;;;2.10;;
26696;SDS011;14312;52.614;13.496;2023-12-28T15:39:07;3.38;;;2.40;;
26696;SDS011;14312;52.614;13.496;2023-12-28T15:41:57;2.10;;;1.70;;
26696;SDS011;14312;52.614;13.496;2023-12-28T15:44:43;3.20;;;1.90;;
26696;SDS011;14312;52.614;13.496;2023-12-28T15:47:29;2.67;;;1.95;;
26696;SDS011;14312;52.614;13.496;2023-12-28T15:50:15;4.47;;;2.33;;
26696;SDS011;14312;52.614;13.496;2023-12-28T15:53:02;3.30;;;2.33;;
26696;SDS011;14312;52.614;13.496;2023-12-28T15:55:48;3.70;;;2.05;;
26696;SDS011;14312;52.614;13.496;2023-12-28T15:58:34;4.05;;;3.17;;
26696;SDS011;14312;52.614;13.496;2023-12-28T16:01:20;4.55;;;3.90;;
26696;SDS011;14312;52.614;13.496;2023-12-28T16:04:06;3.13;;;2.38;;
26696;SDS011;14312;52.614;13.496;2023-12-28T16:06:52;4.78;;;2.75;;
26696;SDS011;14312;52.614;13.496;2023-12-28T16:09:39;3.80;;;2.90;;
26696;SDS011;14312;52.614;13.496;2023-12-28T16:12:25;3.17;;;2.53;;
26696;SDS011;14312;52.614;13.496;2023-12-28T16:15:12;2.88;;;2.58;;
26696;SDS011;14312;52.614;13.496;2023-12-28T16:17:59;3.05;;;2.80;;
26696;SDS011;14312;52.614;13.496;2023-12-28T16:20:45;3.60;;;2.50;;
26696;SDS011;14312;52.614;13.496;2023-12-28T16:23:32;3.25;;;2.22;;
26696;SDS011;14312;52.614;13.496;2023-12-28T16:26:18;3.50;;;2.40;;
26696;SDS011;14312;52.614;13.496;2023-12-28T16:29:04;5.05;;;3.15;;
26696;SDS011;14312;52.614;13.496;2023-12-28T16:31:52;2.40;;;2.17;;
26696;SDS011;14312;52.614;13.496;2023-12-28T16:34:38;3.88;;;2.50;;
26696;SDS011;14312;52.614;13.496;2023-12-28T16:37:24;4.15;;;3.10;;
26696;SDS011;14312;52.614;13.496;2023-12-28T16:40:11;4.53;;;4.00;;
26696;SDS011;14312;52.614;13.496;2023-12-28T16:43:00;3.60;;;2.53;;
26696;SDS011;14312;52.614;13.496;2023-12-28T16:45:48;4.78;;;3.40;;
26696;SDS011;14312;52.614;13.496;2023-12-28T16:48:42;4.47;;;3.80;;
26696;SDS011;14312;52.614;13.496;2023-12-28T16:51:29;4.75;;;2.75;;
26696;SDS011;14312;52.614;13.496;2023-12-28T16:54:18;4.03;;;3.17;;
26696;SDS011;14312;52.614;13.496;2023-12-28T16:57:05;5.07;;;3.80;;
26696;SDS011;14312;52.614;13.496;2023-12-28T16:59:53;3.70;;;3.20;;
26696;SDS011;14312;52.614;13.496;2023-12-28T17:02:42;3.92;;;3.40;;
26696;SDS011;14312;52.614;13.496;2023-12-28T17:05:32;3.28;;;2.50;;
26696;SDS011;14312;52.614;13.496;2023-12-28T17:08:18;3.60;;;3.30;;
26696;SDS011;14312;52.614;13.496;2023-12-28T17:11:05;5.13;;;3.58;;
26696;SDS011;14312;52.614;13.496;2023-12-28T17:13:52;2.95;;;2.50;;
